createdAt,value
2019-02-09T00:00:28.552Z,77.75
2019-02-09T00:01:28.541Z,77.45
2019-02-09T00:02:28.527Z,79.61
2019-02-09T00:03:28.527Z,79.75
2019-02-09T00:04:28.528Z,81.29
2019-02-09T00:05:28.492Z,81.91
2019-02-09T00:06:28.485Z,83.18
2019-02-09T00:07:28.473Z,82.77
2019-02-09T00:08:28.461Z,84.83
2019-02-09T00:09:28.464Z,84.45
2019-02-09T00:10:28.453Z,85.44
2019-02-09T00:11:28.429Z,85.17
2019-02-09T00:12:29.763Z,86.00
2019-02-09T00:13:28.407Z,86.72
2019-02-09T00:14:28.395Z,86.82
2019-02-09T00:15:28.417Z,87.79
2019-02-09T00:16:28.371Z,87.90
2019-02-09T00:17:28.357Z,88.10
2019-02-09T00:18:28.368Z,87.17
2019-02-09T00:19:28.340Z,87.90
2019-02-09T00:20:28.328Z,88.51
2019-02-09T00:21:28.354Z,89.34
2019-02-09T00:22:28.306Z,90.10
2019-02-09T00:23:28.296Z,90.41
2019-02-09T00:24:28.285Z,90.20
2019-02-09T00:25:28.268Z,90.86
2019-02-09T00:26:28.261Z,90.55
2019-02-09T00:27:28.268Z,90.72
2019-02-09T00:28:28.236Z,90.45
2019-02-09T00:29:28.228Z,90.97
2019-02-09T00:30:28.215Z,92.21
2019-02-09T00:31:28.203Z,90.72
2019-02-09T00:32:28.209Z,91.28
2019-02-09T00:33:28.189Z,91.17
2019-02-09T00:34:28.194Z,90.66
2019-02-09T00:35:28.160Z,89.32
2019-02-09T00:36:28.148Z,91.03
2019-02-09T00:37:28.143Z,91.38
2019-02-09T00:38:28.137Z,89.62
2019-02-09T00:39:28.128Z,90.14
2019-02-09T00:40:28.101Z,91.07
2019-02-09T00:41:28.096Z,90.04
2019-02-09T00:42:28.085Z,89.89
2019-02-09T00:43:28.088Z,90.04
2019-02-09T00:44:28.059Z,90.35
2019-02-09T00:45:28.059Z,89.01
2019-02-09T00:46:28.040Z,89.07
2019-02-09T00:47:28.032Z,88.56
2019-02-09T00:48:28.035Z,88.86
2019-02-09T00:49:28.012Z,88.65
2019-02-09T00:50:27.996Z,88.35
2019-02-09T00:51:27.984Z,88.86
2019-02-09T00:52:27.972Z,89.58
2019-02-09T00:53:27.963Z,90.00
2019-02-09T00:54:27.964Z,89.28
2019-02-09T00:55:27.945Z,90.00
2019-02-09T00:56:27.927Z,90.20
2019-02-09T00:57:27.925Z,90.04
2019-02-09T00:58:27.906Z,89.73
2019-02-09T00:59:27.896Z,91.03
2019-02-09T01:00:27.901Z,90.20
2019-02-09T01:01:27.874Z,89.94
2019-02-09T01:02:27.868Z,90.31
2019-02-09T01:03:27.852Z,90.00
2019-02-09T01:04:27.844Z,90.66
2019-02-09T01:05:27.847Z,91.17
2019-02-09T01:06:27.837Z,91.28
2019-02-09T01:07:27.804Z,89.73
2019-02-09T01:08:27.796Z,91.48
2019-02-09T01:09:27.785Z,91.28
2019-02-09T01:10:27.769Z,91.58
2019-02-09T01:11:27.756Z,91.48
2019-02-09T01:12:27.764Z,91.38
2019-02-09T01:13:27.736Z,91.58
2019-02-09T01:14:27.737Z,91.07
2019-02-09T01:15:27.714Z,91.28
2019-02-09T01:16:27.716Z,90.66
2019-02-09T01:17:27.692Z,91.48
2019-02-09T01:18:27.696Z,92.41
2019-02-09T01:19:27.668Z,92.61
2019-02-09T01:20:27.680Z,92.10
2019-02-09T01:21:27.648Z,91.48
2019-02-09T01:22:27.656Z,92.72
2019-02-09T01:23:27.624Z,92.31
2019-02-09T01:24:27.612Z,92.10
2019-02-09T01:25:27.600Z,92.10
2019-02-09T01:26:27.600Z,92.14
2019-02-09T01:27:27.581Z,91.89
2019-02-09T01:28:27.586Z,91.89
2019-02-09T01:29:27.556Z,92.31
2019-02-09T01:30:27.548Z,92.31
2019-02-09T01:31:27.540Z,92.66
2019-02-09T01:32:27.564Z,92.41
2019-02-09T01:33:27.516Z,92.46
2019-02-09T01:34:27.515Z,92.25
2019-02-09T01:35:27.488Z,92.66
2019-02-09T01:36:27.483Z,92.41
2019-02-09T01:37:27.467Z,92.72
2019-02-09T01:38:27.468Z,92.86
2019-02-09T01:39:27.443Z,93.90
2019-02-09T01:40:27.454Z,93.28
2019-02-09T01:41:27.424Z,93.49
2019-02-09T01:42:27.412Z,92.86
2019-02-09T01:43:27.404Z,92.97
2019-02-09T01:44:27.399Z,93.18
2019-02-09T01:45:27.409Z,92.97
2019-02-09T01:46:27.372Z,94.00
2019-02-09T01:47:27.371Z,92.86
2019-02-09T01:48:27.369Z,93.49
2019-02-09T01:49:27.333Z,93.59
2019-02-09T01:50:27.339Z,93.28
2019-02-09T01:51:27.353Z,92.66
2019-02-09T01:52:27.300Z,93.38
2019-02-09T01:53:27.289Z,93.28
2019-02-09T01:54:27.296Z,93.59
2019-02-09T01:55:27.276Z,93.38
2019-02-09T01:56:27.260Z,93.18
2019-02-09T01:57:27.264Z,93.38
2019-02-09T01:58:27.240Z,93.38
2019-02-09T01:59:27.249Z,93.18
2019-02-09T02:00:27.217Z,92.86
2019-02-09T02:01:27.204Z,93.28
2019-02-09T02:02:27.192Z,93.38
2019-02-09T02:03:27.192Z,93.38
2019-02-09T02:04:27.168Z,93.28
2019-02-09T02:05:27.170Z,93.38
2019-02-09T02:06:27.158Z,92.76
2019-02-09T02:07:27.136Z,92.66
2019-02-09T02:08:27.129Z,92.66
2019-02-09T02:09:27.121Z,92.55
2019-02-09T02:10:27.104Z,92.76
2019-02-09T02:11:27.100Z,92.97
2019-02-09T02:12:27.076Z,93.07
2019-02-09T02:13:27.080Z,92.55
2019-02-09T02:14:27.062Z,91.52
2019-02-09T02:15:27.057Z,91.32
2019-02-09T02:16:27.033Z,92.14
2019-02-09T02:17:27.031Z,90.80
2019-02-09T02:18:27.031Z,91.52
2019-02-09T02:19:27.000Z,92.46
2019-02-09T02:20:26.990Z,92.14
2019-02-09T02:21:26.992Z,92.14
2019-02-09T02:22:26.971Z,92.14
2019-02-09T02:23:26.971Z,92.46
2019-02-09T02:24:26.943Z,92.25
2019-02-09T02:25:26.952Z,92.25
2019-02-09T02:26:26.924Z,92.25
2019-02-09T02:27:26.922Z,93.28
2019-02-09T02:28:26.906Z,92.86
2019-02-09T02:29:26.888Z,93.43
2019-02-09T02:30:26.881Z,93.12
2019-02-09T02:31:26.892Z,93.84
2019-02-09T02:32:26.865Z,94.15
2019-02-09T02:33:26.854Z,94.56
2019-02-09T02:34:26.833Z,94.56
2019-02-09T02:35:26.843Z,94.35
2019-02-09T02:36:26.811Z,94.04
2019-02-09T02:37:26.829Z,94.56
2019-02-09T02:38:26.788Z,93.94
2019-02-09T02:39:26.792Z,93.84
2019-02-09T02:40:26.770Z,93.73
2019-02-09T02:41:26.840Z,94.04
2019-02-09T02:42:26.750Z,93.53
2019-02-09T02:43:26.757Z,93.73
2019-02-09T02:44:26.726Z,93.32
2019-02-09T02:45:26.724Z,93.94
2019-02-09T02:46:26.702Z,94.04
2019-02-09T02:47:26.702Z,93.01
2019-02-09T02:48:26.778Z,93.73
2019-02-09T02:49:26.680Z,93.73
2019-02-09T02:50:26.660Z,93.43
2019-02-09T02:51:26.670Z,93.53
2019-02-09T02:52:26.631Z,94.46
2019-02-09T02:53:26.621Z,94.25
2019-02-09T02:54:26.617Z,93.53
2019-02-09T02:55:26.625Z,93.63
2019-02-09T02:56:26.588Z,93.43
2019-02-09T02:57:26.589Z,93.53
2019-02-09T02:58:26.563Z,93.94
2019-02-09T02:59:26.575Z,92.80
2019-02-09T03:00:32.517Z,92.91
2019-02-09T03:01:27.547Z,92.97
2019-02-09T03:02:26.521Z,92.25
2019-02-09T03:03:26.530Z,92.86
2019-02-09T03:04:26.504Z,92.66
2019-02-09T03:05:26.508Z,93.01
2019-02-09T03:06:26.486Z,92.86
2019-02-09T03:07:26.467Z,92.50
2019-02-09T03:08:26.451Z,92.35
2019-02-09T03:09:26.465Z,92.40
2019-02-09T03:10:26.436Z,92.25
2019-02-09T03:11:26.431Z,92.14
2019-02-09T03:12:26.409Z,91.11
2019-02-09T03:13:26.395Z,91.01
2019-02-09T03:14:26.391Z,91.32
2019-02-09T03:15:26.383Z,91.22
2019-02-09T03:16:26.387Z,91.11
2019-02-09T03:17:26.355Z,90.80
2019-02-09T03:18:26.348Z,90.86
2019-02-09T03:19:26.333Z,90.76
2019-02-09T03:20:26.324Z,89.94
2019-02-09T03:21:26.321Z,90.76
2019-02-09T03:22:26.315Z,89.83
2019-02-09T03:23:26.287Z,89.73
2019-02-09T03:24:26.288Z,90.04
2019-02-09T03:25:26.273Z,89.22
2019-02-09T03:26:26.255Z,90.04
2019-02-09T03:27:26.299Z,89.94
2019-02-09T03:28:26.251Z,90.14
2019-02-09T03:29:26.219Z,90.14
2019-02-09T03:30:26.223Z,90.04
2019-02-09T03:31:26.199Z,89.94
2019-02-09T03:32:26.188Z,90.45
2019-02-09T03:33:26.194Z,90.25
2019-02-09T03:34:26.191Z,90.14
2019-02-09T03:35:26.165Z,90.04
2019-02-09T03:36:26.140Z,90.04
2019-02-09T03:37:26.141Z,90.35
2019-02-09T03:38:26.124Z,90.14
2019-02-09T03:39:26.121Z,89.94
2019-02-09T03:40:26.117Z,90.14
2019-02-09T03:41:26.083Z,89.73
2019-02-09T03:42:26.095Z,89.22
2019-02-09T03:43:26.063Z,88.80
2019-02-09T03:44:26.054Z,88.80
2019-02-09T03:45:26.057Z,89.01
2019-02-09T03:46:26.045Z,89.83
2019-02-09T03:47:26.020Z,89.83
2019-02-09T03:48:26.010Z,89.42
2019-02-09T03:49:26.003Z,89.73
2019-02-09T03:50:26.020Z,90.35
2019-02-09T03:51:25.985Z,89.01
2019-02-09T03:52:25.976Z,89.22
2019-02-09T03:53:25.952Z,89.52
2019-02-09T03:54:25.945Z,89.01
2019-02-09T03:55:25.938Z,89.01
2019-02-09T03:56:25.923Z,89.62
2019-02-09T03:57:25.945Z,89.11
2019-02-09T03:58:25.901Z,89.01
2019-02-09T03:59:25.887Z,88.80
2019-02-09T04:00:25.875Z,88.29
2019-02-09T04:01:25.865Z,88.59
2019-02-09T04:02:25.852Z,88.56
2019-02-09T04:03:25.863Z,89.01
2019-02-09T04:04:25.836Z,89.01
2019-02-09T04:05:25.831Z,88.39
2019-02-09T04:06:25.813Z,87.83
2019-02-09T04:07:25.804Z,88.49
2019-02-09T04:08:25.784Z,88.80
2019-02-09T04:09:25.799Z,89.01
2019-02-09T04:10:25.854Z,89.17
2019-02-09T04:11:25.754Z,89.73
2019-02-09T04:12:25.740Z,89.83
2019-02-09T04:13:25.754Z,89.11
2019-02-09T04:14:25.726Z,89.52
2019-02-09T04:15:25.734Z,89.32
2019-02-09T04:16:25.700Z,89.73
2019-02-09T04:17:25.703Z,89.32
2019-02-09T04:18:25.682Z,89.32
2019-02-09T04:19:25.663Z,89.11
2019-02-09T04:20:25.668Z,88.90
2019-02-09T04:21:25.640Z,88.59
2019-02-09T04:22:25.632Z,88.35
2019-02-09T04:23:25.636Z,88.65
2019-02-09T04:24:25.621Z,88.70
2019-02-09T04:25:25.602Z,88.70
2019-02-09T04:26:25.587Z,88.49
2019-02-09T04:27:25.586Z,88.08
2019-02-09T04:28:25.579Z,88.24
2019-02-09T04:29:25.560Z,88.04
2019-02-09T04:30:25.543Z,88.56
2019-02-09T04:31:25.535Z,88.56
2019-02-09T04:32:25.531Z,88.56
2019-02-09T04:33:25.521Z,88.24
2019-02-09T04:34:25.515Z,87.83
2019-02-09T04:35:25.498Z,88.24
2019-02-09T04:36:25.478Z,88.56
2019-02-09T04:37:25.477Z,88.35
2019-02-09T04:38:25.468Z,88.14
2019-02-09T04:39:25.460Z,87.17
2019-02-09T04:40:25.444Z,87.27
2019-02-09T04:41:25.421Z,87.90
2019-02-09T04:42:25.437Z,87.38
2019-02-09T04:43:25.401Z,87.38
2019-02-09T04:44:25.397Z,86.97
2019-02-09T04:45:25.405Z,87.17
2019-02-09T04:46:25.374Z,87.27
2019-02-09T04:47:25.357Z,87.38
2019-02-09T04:48:25.355Z,87.69
2019-02-09T04:49:25.385Z,87.27
2019-02-09T04:50:25.320Z,87.27
2019-02-09T04:51:25.336Z,87.69
2019-02-09T04:52:25.297Z,87.17
2019-02-09T04:53:25.289Z,87.27
2019-02-09T04:54:25.323Z,87.27
2019-02-09T04:55:25.284Z,87.27
2019-02-09T04:56:25.254Z,87.07
2019-02-09T04:57:25.270Z,86.24
2019-02-09T04:58:25.234Z,86.45
2019-02-09T04:59:25.217Z,86.61
2019-02-09T05:00:25.211Z,86.61
2019-02-09T05:01:25.200Z,86.31
2019-02-09T05:02:25.184Z,86.72
2019-02-09T05:03:25.283Z,86.76
2019-02-09T05:04:25.165Z,86.52
2019-02-09T05:05:25.153Z,86.55
2019-02-09T05:06:25.141Z,86.66
2019-02-09T05:07:25.130Z,86.87
2019-02-09T05:08:25.118Z,87.07
2019-02-09T05:09:25.136Z,86.66
2019-02-09T05:10:25.099Z,86.87
2019-02-09T05:11:25.087Z,86.66
2019-02-09T05:12:25.079Z,86.76
2019-02-09T05:13:25.063Z,86.35
2019-02-09T05:14:25.071Z,86.76
2019-02-09T05:15:25.055Z,86.35
2019-02-09T05:16:25.028Z,85.63
2019-02-09T05:17:25.019Z,85.31
2019-02-09T05:18:25.007Z,85.11
2019-02-09T05:19:24.999Z,85.01
2019-02-09T05:20:25.382Z,84.91
2019-02-09T05:21:25.035Z,84.70
2019-02-09T05:22:24.963Z,85.01
2019-02-09T05:23:24.951Z,85.01
2019-02-09T05:24:24.947Z,85.01
2019-02-09T05:25:24.932Z,84.80
2019-02-09T05:26:24.928Z,84.59
2019-02-09T05:27:24.920Z,85.11
2019-02-09T05:28:24.900Z,84.70
2019-02-09T05:29:24.887Z,84.59
2019-02-09T05:30:24.877Z,85.25
2019-02-09T05:31:24.911Z,85.57
2019-02-09T05:32:24.853Z,85.77
2019-02-09T05:33:24.860Z,85.05
2019-02-09T05:34:24.827Z,85.11
2019-02-09T05:35:24.815Z,84.74
2019-02-09T05:36:24.811Z,84.94
2019-02-09T05:37:24.811Z,84.49
2019-02-09T05:38:24.783Z,84.84
2019-02-09T05:39:24.794Z,82.95
2019-02-09T05:40:24.776Z,82.95
2019-02-09T05:41:24.753Z,83.05
2019-02-09T05:42:24.738Z,83.26
2019-02-09T05:43:24.746Z,82.95
2019-02-09T05:44:24.715Z,83.26
2019-02-09T05:45:24.718Z,83.26
2019-02-09T05:46:24.695Z,83.26
2019-02-09T05:47:24.683Z,83.09
2019-02-09T05:48:24.715Z,82.89
2019-02-09T05:49:24.675Z,83.50
2019-02-09T05:50:24.654Z,82.89
2019-02-09T05:51:24.639Z,82.37
2019-02-09T05:52:24.662Z,82.78
2019-02-09T05:53:24.620Z,82.57
2019-02-09T05:54:24.607Z,82.78
2019-02-09T05:55:24.614Z,83.29
2019-02-09T05:56:24.586Z,83.09
2019-02-09T05:57:24.574Z,83.23
2019-02-09T05:58:24.574Z,83.19
2019-02-09T05:59:24.551Z,83.23
2019-02-09T06:00:24.543Z,83.61
2019-02-09T06:01:31.845Z,83.64
2019-02-09T06:02:25.517Z,83.54
2019-02-09T06:03:24.515Z,84.67
2019-02-09T06:04:24.541Z,85.09
2019-02-09T06:05:24.516Z,84.78
2019-02-09T06:06:24.474Z,85.09
2019-02-09T06:07:24.459Z,84.99
2019-02-09T06:08:24.454Z,85.39
2019-02-09T06:09:24.442Z,85.39
2019-02-09T06:10:24.440Z,85.60
2019-02-09T06:11:24.437Z,85.50
2019-02-09T06:12:24.406Z,85.60
2019-02-09T06:13:24.402Z,86.12
2019-02-09T06:14:24.399Z,85.71
2019-02-09T06:15:24.386Z,86.02
2019-02-09T06:16:24.382Z,86.12
2019-02-09T06:17:24.351Z,85.71
2019-02-09T06:18:24.351Z,85.71
2019-02-09T06:19:24.331Z,86.12
2019-02-09T06:20:24.329Z,85.60
2019-02-09T06:21:24.318Z,85.05
2019-02-09T06:22:24.311Z,85.19
2019-02-09T06:23:24.283Z,85.36
2019-02-09T06:24:24.285Z,85.05
2019-02-09T06:25:24.275Z,85.15
2019-02-09T06:26:24.258Z,85.15
2019-02-09T06:27:24.245Z,85.19
2019-02-09T06:28:24.237Z,84.94
2019-02-09T06:29:24.218Z,85.15
2019-02-09T06:30:24.248Z,84.74
2019-02-09T06:31:24.194Z,84.74
2019-02-09T06:32:24.183Z,85.05
2019-02-09T06:33:24.171Z,85.05
2019-02-09T06:34:24.162Z,84.99
2019-02-09T06:35:24.158Z,85.05
2019-02-09T06:36:24.164Z,84.94
2019-02-09T06:37:24.127Z,84.64
2019-02-09T06:38:24.124Z,84.33
2019-02-09T06:39:24.110Z,83.56
2019-02-09T06:40:24.096Z,83.56
2019-02-09T06:41:24.106Z,82.98
2019-02-09T06:42:24.097Z,83.26
2019-02-09T06:43:24.063Z,83.26
2019-02-09T06:44:24.053Z,83.05
2019-02-09T06:45:24.042Z,82.91
2019-02-09T06:46:24.031Z,82.74
2019-02-09T06:47:24.041Z,82.74
2019-02-09T06:48:24.013Z,83.15
2019-02-09T06:49:23.995Z,82.23
2019-02-09T06:50:23.986Z,82.23
2019-02-09T06:51:23.974Z,82.54
2019-02-09T06:52:23.965Z,81.92
2019-02-09T06:53:23.981Z,82.95
2019-02-09T06:54:23.945Z,81.20
2019-02-09T06:55:23.929Z,82.02
2019-02-09T06:56:23.914Z,81.81
2019-02-09T06:57:23.922Z,81.61
2019-02-09T06:58:23.894Z,81.51
2019-02-09T06:59:23.899Z,80.95
2019-02-09T07:00:23.882Z,80.33
2019-02-09T07:01:23.861Z,80.54
2019-02-09T07:02:23.856Z,80.02
2019-02-09T07:03:23.842Z,79.61
2019-02-09T07:04:23.829Z,80.02
2019-02-09T07:05:23.833Z,79.72
2019-02-09T07:06:23.821Z,80.02
2019-02-09T07:07:23.798Z,81.05
2019-02-09T07:08:23.791Z,80.85
2019-02-09T07:09:23.794Z,80.85
2019-02-09T07:10:23.770Z,80.89
2019-02-09T07:11:23.779Z,80.54
2019-02-09T07:12:23.776Z,80.44
2019-02-09T07:13:23.726Z,80.89
2019-02-09T07:14:23.747Z,81.51
2019-02-09T07:15:30.760Z,80.89
2019-02-09T07:16:23.699Z,80.27
2019-02-09T07:17:23.706Z,79.96
2019-02-09T07:18:23.689Z,79.51
2019-02-09T07:19:23.658Z,79.93
2019-02-09T07:20:23.654Z,79.86
2019-02-09T07:21:23.649Z,79.72
2019-02-09T07:22:23.627Z,79.30
2019-02-09T07:23:23.634Z,79.00
2019-02-09T07:24:23.620Z,78.69
2019-02-09T07:25:23.595Z,78.79
2019-02-09T07:26:23.585Z,78.79
2019-02-09T07:27:23.573Z,78.69
2019-02-09T07:28:23.569Z,79.00
2019-02-09T07:29:23.583Z,79.00
2019-02-09T07:30:23.543Z,78.65
2019-02-09T07:31:23.546Z,78.55
2019-02-09T07:32:23.523Z,78.79
2019-02-09T07:33:23.610Z,78.79
2019-02-09T07:34:23.494Z,78.75
2019-02-09T07:35:23.502Z,78.75
2019-02-09T07:36:23.471Z,78.79
2019-02-09T07:37:23.462Z,78.24
2019-02-09T07:38:23.451Z,78.75
2019-02-09T07:39:23.439Z,78.96
2019-02-09T07:40:23.437Z,78.96
2019-02-09T07:41:23.446Z,79.06
2019-02-09T07:42:23.406Z,78.58
2019-02-09T07:43:23.394Z,78.65
2019-02-09T07:44:23.386Z,79.16
2019-02-09T07:45:23.372Z,78.89
2019-02-09T07:46:23.384Z,79.27
2019-02-09T07:47:23.356Z,79.72
2019-02-09T07:48:24.105Z,79.93
2019-02-09T07:49:23.336Z,79.16
2019-02-09T07:50:23.316Z,79.41
2019-02-09T07:51:30.368Z,79.82
2019-02-09T07:52:30.370Z,79.27
2019-02-09T07:53:23.280Z,79.37
2019-02-09T07:54:23.277Z,79.82
2019-02-09T07:55:23.266Z,79.41
2019-02-09T07:56:23.248Z,80.23
2019-02-09T07:57:23.256Z,79.20
2019-02-09T07:58:23.233Z,79.10
2019-02-09T07:59:30.288Z,79.30
2019-02-09T08:00:23.211Z,79.10
2019-02-09T08:01:23.193Z,78.89
2019-02-09T08:02:23.184Z,79.10
2019-02-09T08:03:23.193Z,79.10
2019-02-09T08:04:23.164Z,78.38
2019-02-09T08:05:23.152Z,78.07
2019-02-09T08:06:23.152Z,78.24
2019-02-09T08:07:23.128Z,78.17
2019-02-09T08:08:23.116Z,78.38
2019-02-09T08:09:23.128Z,78.69
2019-02-09T08:10:23.121Z,78.48
2019-02-09T08:11:23.084Z,78.07
2019-02-09T08:12:23.076Z,78.34
2019-02-09T08:13:23.064Z,77.97
2019-02-09T08:14:23.052Z,77.45
2019-02-09T08:15:23.040Z,77.97
2019-02-09T08:16:23.040Z,77.51
2019-02-09T08:17:23.020Z,77.55
2019-02-09T08:18:23.008Z,76.83
2019-02-09T08:19:22.996Z,76.73
2019-02-09T08:20:22.987Z,77.04
2019-02-09T08:21:22.969Z,77.35
2019-02-09T08:22:22.972Z,77.14
2019-02-09T08:23:22.959Z,77.25
2019-02-09T08:24:22.940Z,77.66
2019-02-09T08:25:22.924Z,78.28
2019-02-09T08:26:22.928Z,78.38
2019-02-09T08:27:23.710Z,78.69
2019-02-09T08:28:22.911Z,78.89
2019-02-09T08:29:22.886Z,79.03
2019-02-09T08:30:22.876Z,79.00
2019-02-09T08:31:22.863Z,78.58
2019-02-09T08:32:22.860Z,78.79
2019-02-09T08:33:22.841Z,79.00
2019-02-09T08:34:22.840Z,78.79
2019-02-09T08:35:22.816Z,78.79
2019-02-09T08:36:22.820Z,79.20
2019-02-09T08:37:22.796Z,79.20
2019-02-09T08:38:22.783Z,78.89
2019-02-09T08:39:22.783Z,78.79
2019-02-09T08:40:22.760Z,78.65
2019-02-09T08:41:22.772Z,79.10
2019-02-09T08:42:22.740Z,79.27
2019-02-09T08:43:22.728Z,78.86
2019-02-09T08:44:22.724Z,79.16
2019-02-09T08:45:22.707Z,78.79
2019-02-09T08:46:22.696Z,78.55
2019-02-09T08:47:22.703Z,78.55
2019-02-09T08:48:22.672Z,78.75
2019-02-09T08:49:22.665Z,79.06
2019-02-09T08:50:22.655Z,78.75
2019-02-09T08:51:22.636Z,78.86
2019-02-09T08:52:22.641Z,77.51
2019-02-09T08:53:22.628Z,78.34
2019-02-09T08:54:22.604Z,78.65
2019-02-09T08:55:22.595Z,78.24
2019-02-09T08:56:22.592Z,78.34
2019-02-09T08:57:22.568Z,79.16
2019-02-09T08:58:22.568Z,78.65
2019-02-09T08:59:22.572Z,78.65
2019-02-09T09:00:22.540Z,78.24
2019-02-09T09:01:22.528Z,78.34
2019-02-09T09:02:22.544Z,78.86
2019-02-09T09:03:22.505Z,77.97
2019-02-09T09:04:22.499Z,77.51
2019-02-09T09:05:22.497Z,78.86
2019-02-09T09:06:22.473Z,78.44
2019-02-09T09:07:25.220Z,78.44
2019-02-09T09:08:22.451Z,78.03
2019-02-09T09:09:22.440Z,77.42
2019-02-09T09:10:22.448Z,77.42
2019-02-09T09:11:22.416Z,77.83
2019-02-09T09:12:22.404Z,77.00
2019-02-09T09:13:22.403Z,77.28
2019-02-09T09:14:22.380Z,77.79
2019-02-09T09:15:22.372Z,77.31
2019-02-09T09:16:22.375Z,77.69
2019-02-09T09:18:12.201Z,76.76
2019-02-09T09:19:12.199Z,76.04
2019-02-09T09:20:12.179Z,76.14
2019-02-09T09:21:12.163Z,76.25
2019-02-09T09:22:12.176Z,76.76
2019-02-09T09:23:12.145Z,76.04
2019-02-09T09:24:12.156Z,76.11
2019-02-09T09:25:12.119Z,76.62
2019-02-09T09:26:12.141Z,75.80
2019-02-09T09:27:12.139Z,76.25
2019-02-09T09:28:12.104Z,75.59
2019-02-09T09:29:12.076Z,75.59
2019-02-09T09:30:12.075Z,76.01
2019-02-09T09:31:12.058Z,75.70
2019-02-09T09:32:12.043Z,76.01
2019-02-09T09:33:12.083Z,75.80
2019-02-09T09:34:12.032Z,76.21
2019-02-09T09:35:12.011Z,75.70
2019-02-09T09:36:12.000Z,74.77
2019-02-09T09:37:11.987Z,73.71
2019-02-09T09:38:11.979Z,74.46
2019-02-09T09:39:11.983Z,74.22
2019-02-09T09:40:12.015Z,74.15
2019-02-09T09:41:11.943Z,74.05
2019-02-09T09:42:11.935Z,74.36
2019-02-09T09:43:11.921Z,74.63
2019-02-09T09:44:11.915Z,74.43
2019-02-09T09:45:11.914Z,74.22
2019-02-09T09:46:11.885Z,73.57
2019-02-09T09:47:11.878Z,72.99
2019-02-09T09:48:11.957Z,73.57
2019-02-09T09:49:11.858Z,73.27
2019-02-09T09:50:11.846Z,73.57
2019-02-09T09:51:11.857Z,72.85
2019-02-09T09:52:11.821Z,74.19
2019-02-09T09:53:11.806Z,73.27
2019-02-09T09:54:11.796Z,73.06
2019-02-09T09:55:11.914Z,72.13
2019-02-09T09:56:11.789Z,72.03
2019-02-09T09:57:11.777Z,72.31
2019-02-09T09:58:11.753Z,72.44
2019-02-09T09:59:11.764Z,72.24
2019-02-09T10:00:11.741Z,72.65
2019-02-09T10:01:11.721Z,72.13
2019-02-09T10:02:11.737Z,72.31
2019-02-09T10:03:11.698Z,72.00
2019-02-09T10:04:11.685Z,71.31
2019-02-09T10:05:11.677Z,71.72
2019-02-09T10:06:11.662Z,72.34
2019-02-09T10:07:11.713Z,70.56
2019-02-09T10:08:11.653Z,70.49
2019-02-09T10:09:11.645Z,70.79
2019-02-09T10:10:11.617Z,71.11
2019-02-09T10:11:11.605Z,70.79
2019-02-09T10:12:11.596Z,70.28
2019-02-09T10:13:11.644Z,70.59
2019-02-09T10:14:11.585Z,69.77
2019-02-09T10:15:11.561Z,69.98
2019-02-09T10:16:11.553Z,69.87
2019-02-09T10:17:11.541Z,70.59
2019-02-09T10:18:11.529Z,70.36
2019-02-09T10:19:11.557Z,70.70
2019-02-09T10:20:11.509Z,70.28
2019-02-09T10:21:11.493Z,70.49
2019-02-09T10:22:11.489Z,70.28
2019-02-09T10:23:11.473Z,70.49
2019-02-09T10:24:11.481Z,69.84
2019-02-09T10:25:11.461Z,69.26
2019-02-09T10:26:11.438Z,69.67
2019-02-09T10:27:11.429Z,69.77
2019-02-09T10:28:11.418Z,69.87
2019-02-09T10:29:11.405Z,69.53
2019-02-09T10:30:11.411Z,69.46
2019-02-09T10:31:11.397Z,69.64
2019-02-09T10:32:11.374Z,70.25
2019-02-09T10:33:11.361Z,69.32
2019-02-09T10:34:11.349Z,68.61
2019-02-09T10:35:11.345Z,68.88
2019-02-09T10:36:11.341Z,67.65
2019-02-09T10:37:11.352Z,67.65
2019-02-09T10:38:11.305Z,67.44
2019-02-09T10:39:11.293Z,66.86
2019-02-09T10:40:11.281Z,68.06
2019-02-09T10:41:11.274Z,67.96
2019-02-09T10:42:11.277Z,67.76
2019-02-09T10:43:11.261Z,67.65
2019-02-09T10:44:11.238Z,67.44
2019-02-09T10:45:11.226Z,67.86
2019-02-09T10:46:11.217Z,67.32
2019-02-09T10:47:11.206Z,66.08
2019-02-09T10:48:11.206Z,66.36
2019-02-09T10:49:11.198Z,66.36
2019-02-09T10:50:11.174Z,66.16
2019-02-09T10:51:11.165Z,66.36
2019-02-09T10:52:11.149Z,65.44
2019-02-09T10:53:11.169Z,65.54
2019-02-09T10:54:11.124Z,64.82
2019-02-09T10:55:11.155Z,65.44
2019-02-09T10:56:11.109Z,65.47
2019-02-09T10:57:11.094Z,64.95
2019-02-09T10:58:11.081Z,65.57
2019-02-09T10:59:11.110Z,65.36
2019-02-09T11:00:11.061Z,65.77
2019-02-09T11:01:11.082Z,65.98
2019-02-09T11:02:11.041Z,66.01
2019-02-09T11:03:11.035Z,65.77
2019-02-09T11:04:11.030Z,65.06
2019-02-09T11:05:11.006Z,65.06
2019-02-09T11:06:10.993Z,65.67
2019-02-09T11:07:10.986Z,65.64
2019-02-09T11:08:11.017Z,64.44
2019-02-09T11:09:10.962Z,64.54
2019-02-09T11:10:10.962Z,65.16
2019-02-09T11:11:10.942Z,65.26
2019-02-09T11:12:10.930Z,64.85
2019-02-09T11:13:10.919Z,65.26
2019-02-09T11:14:11.055Z,65.47
2019-02-09T11:15:10.894Z,64.64
2019-02-09T11:16:10.915Z,65.06
2019-02-09T11:17:10.876Z,65.57
2019-02-09T11:18:10.863Z,65.50
2019-02-09T11:19:10.883Z,65.16
2019-02-09T11:20:10.839Z,65.16
2019-02-09T11:21:10.831Z,64.95
2019-02-09T11:22:10.872Z,65.36
2019-02-09T11:23:10.807Z,65.98
2019-02-09T11:24:10.799Z,65.70
2019-02-09T11:25:10.787Z,66.08
2019-02-09T11:26:10.771Z,65.80
2019-02-09T11:27:10.771Z,65.70
2019-02-09T11:28:10.796Z,66.01
2019-02-09T11:29:10.743Z,66.28
2019-02-09T11:30:10.732Z,65.47
2019-02-09T11:31:10.719Z,65.74
2019-02-09T11:32:10.711Z,65.44
2019-02-09T11:33:10.695Z,66.16
2019-02-09T11:34:10.743Z,65.12
2019-02-09T11:35:10.680Z,64.82
2019-02-09T11:36:10.663Z,64.61
2019-02-09T11:37:10.651Z,64.41
2019-02-09T11:38:10.639Z,64.20
2019-02-09T11:39:10.635Z,64.54
2019-02-09T11:40:10.659Z,64.95
2019-02-09T11:41:11.101Z,64.31
2019-02-09T11:42:10.600Z,64.92
2019-02-09T11:43:10.587Z,64.61
2019-02-09T11:44:10.583Z,64.64
2019-02-09T11:45:10.563Z,64.34
2019-02-09T11:46:10.593Z,65.06
2019-02-09T11:47:10.539Z,64.92
2019-02-09T11:48:10.533Z,64.34
2019-02-09T11:49:10.523Z,65.47
2019-02-09T11:50:10.507Z,66.08
2019-02-09T11:51:10.539Z,65.50
2019-02-09T11:52:10.505Z,65.36
2019-02-09T11:53:10.479Z,66.39
2019-02-09T11:54:10.459Z,66.52
2019-02-09T11:55:10.455Z,66.39
2019-02-09T11:56:10.443Z,66.60
2019-02-09T11:57:10.451Z,66.28
2019-02-09T11:58:10.431Z,65.77
2019-02-09T11:59:10.407Z,66.16
2019-02-09T12:00:10.399Z,66.19
2019-02-09T12:01:10.383Z,65.98
2019-02-09T12:02:11.000Z,66.39
2019-02-09T12:03:14.920Z,66.49
2019-02-09T12:04:11.387Z,66.77
2019-02-09T12:05:17.395Z,65.54
2019-02-09T12:06:10.332Z,65.33
2019-02-09T12:07:10.323Z,65.64
2019-02-09T12:08:10.311Z,66.39
2019-02-09T12:09:10.303Z,65.77
2019-02-09T12:10:10.303Z,66.90
2019-02-09T12:11:10.279Z,66.80
2019-02-09T12:12:10.273Z,67.00
2019-02-09T12:13:10.251Z,65.77
2019-02-09T12:14:10.243Z,66.08
2019-02-09T12:15:10.239Z,65.67
2019-02-09T12:16:10.247Z,66.08
2019-02-09T12:17:10.211Z,65.54
2019-02-09T12:18:10.199Z,66.16
2019-02-09T12:19:10.187Z,65.03
2019-02-09T12:20:10.195Z,65.23
2019-02-09T12:21:10.167Z,65.64
2019-02-09T12:22:10.169Z,65.03
2019-02-09T12:23:10.143Z,66.05
2019-02-09T12:24:10.131Z,65.64
2019-02-09T12:25:10.123Z,64.89
2019-02-09T12:26:10.111Z,64.51
2019-02-09T12:27:10.115Z,65.84
2019-02-09T12:28:10.087Z,65.44
2019-02-09T12:29:10.080Z,66.05
2019-02-09T12:30:10.069Z,66.05
2019-02-09T12:31:10.054Z,64.41
2019-02-09T12:32:10.043Z,64.92
2019-02-09T12:33:10.059Z,64.41
2019-02-09T12:34:10.023Z,64.51
2019-02-09T12:35:10.007Z,64.72
2019-02-09T12:36:10.001Z,62.36
2019-02-09T12:37:09.991Z,62.15
2019-02-09T12:38:09.975Z,63.90
2019-02-09T12:39:09.985Z,63.90
2019-02-09T12:40:09.955Z,64.89
2019-02-09T12:41:09.942Z,64.59
2019-02-09T12:42:11.379Z,64.38
2019-02-09T12:43:09.925Z,63.73
2019-02-09T12:44:09.927Z,63.97
2019-02-09T12:45:09.903Z,63.76
2019-02-09T12:46:09.891Z,63.66
2019-02-09T12:47:09.878Z,62.54
2019-02-09T12:48:09.869Z,62.40
2019-02-09T12:49:09.855Z,62.63
2019-02-09T12:50:09.861Z,62.54
2019-02-09T12:51:09.839Z,63.25
2019-02-09T12:52:09.827Z,63.25
2019-02-09T12:53:09.811Z,63.25